createdAt,value
2022-08-05T00:00:23.174Z,7.72
2022-08-05T00:02:52.134Z,9.15
2022-08-05T00:06:02.744Z,9.10
2022-08-05T00:08:20.025Z,9.18
2022-08-05T00:11:01.303Z,9.13
2022-08-05T00:13:39.112Z,9.77
2022-08-05T00:16:08.890Z,10.43
2022-08-05T00:18:41.008Z,10.55
2022-08-05T00:21:09.893Z,11.63
2022-08-05T00:23:46.009Z,11.68
2022-08-05T00:26:15.206Z,11.52
2022-08-05T00:28:45.776Z,11.70
2022-08-05T00:31:12.850Z,12.68
2022-08-05T00:34:56.798Z,13.00
2022-08-05T00:37:09.130Z,11.60
2022-08-05T00:39:14.409Z,12.20
2022-08-05T00:41:55.243Z,13.20
2022-08-05T00:44:30.802Z,12.02
2022-08-05T00:47:01.852Z,12.50
2022-08-05T00:49:44.361Z,12.00
2022-08-05T00:52:17.889Z,13.77
2022-08-05T00:54:44.485Z,11.90
2022-08-05T00:57:11.330Z,11.90
2022-08-05T00:59:44.667Z,12.02
2022-08-05T01:02:12.142Z,12.48
2022-08-05T01:04:42.218Z,12.30
2022-08-05T01:07:13.518Z,12.40
2022-08-05T01:09:41.870Z,12.23
2022-08-05T01:12:18.201Z,11.88
2022-08-05T01:15:03.911Z,10.63
2022-08-05T01:17:40.118Z,12.15
2022-08-05T01:20:30.204Z,10.55
2022-08-05T01:23:15.244Z,10.90
2022-08-05T01:26:08.050Z,10.68
2022-08-05T01:28:39.682Z,10.73
2022-08-05T01:31:44.799Z,11.05
2022-08-05T01:37:32.846Z,11.35
2022-08-05T01:40:05.901Z,9.73
2022-08-05T01:42:34.475Z,10.63
2022-08-05T01:45:02.259Z,10.50
2022-08-05T01:47:39.666Z,11.68
2022-08-05T01:50:15.213Z,10.13
2022-08-05T01:52:49.859Z,10.57
2022-08-05T01:55:20.170Z,11.13
2022-08-05T01:58:12.460Z,11.35
2022-08-05T02:00:42.068Z,10.48
2022-08-05T02:03:29.165Z,11.00
2022-08-05T02:06:03.618Z,10.25
2022-08-05T02:08:58.672Z,8.45
2022-08-05T02:11:33.313Z,10.23
2022-08-05T02:14:17.363Z,10.45
2022-08-05T02:16:47.171Z,10.65
2022-08-05T02:19:35.053Z,10.10
2022-08-05T02:22:25.438Z,11.10
2022-08-05T02:25:00.085Z,10.48
2022-08-05T02:27:29.898Z,9.15
2022-08-05T02:30:16.933Z,9.90
2022-08-05T02:32:48.034Z,11.00
2022-08-05T02:35:27.709Z,9.57
2022-08-05T02:37:56.825Z,11.02
2022-08-05T02:40:27.563Z,10.60
2022-08-05T02:42:57.383Z,11.00
2022-08-05T02:45:26.276Z,10.15
2022-08-05T02:48:12.152Z,10.27
2022-08-05T02:50:43.944Z,11.05
2022-08-05T02:53:18.645Z,10.25
2022-08-05T02:55:55.137Z,10.50
2022-08-05T02:58:30.989Z,11.70
2022-08-05T03:01:02.437Z,9.48
2022-08-05T03:03:34.136Z,10.10
2022-08-05T03:06:57.161Z,10.25
2022-08-05T03:09:06.703Z,10.38
2022-08-05T03:11:56.205Z,8.93
2022-08-05T03:14:21.336Z,9.27
2022-08-05T03:16:48.106Z,9.88
2022-08-05T03:19:29.434Z,9.80
2022-08-05T03:22:00.901Z,10.00
2022-08-05T03:24:30.805Z,10.43
2022-08-05T03:27:01.147Z,10.93
2022-08-05T03:29:45.500Z,9.93
2022-08-05T03:32:15.535Z,10.60
2022-08-05T03:34:51.040Z,10.77
2022-08-05T03:37:22.747Z,9.57
2022-08-05T03:39:59.124Z,10.32
2022-08-05T03:42:27.119Z,10.45
2022-08-05T03:44:55.856Z,9.65
2022-08-05T03:47:24.094Z,9.73
2022-08-05T03:49:52.404Z,9.50
2022-08-05T03:52:38.509Z,9.68
2022-08-05T03:56:05.472Z,9.40
2022-08-05T03:58:28.948Z,9.45
2022-08-05T04:01:00.022Z,10.15
2022-08-05T04:03:29.317Z,9.95
2022-08-05T04:05:58.039Z,9.27
2022-08-05T04:08:36.088Z,10.85
2022-08-05T04:11:04.858Z,9.63
2022-08-05T04:13:51.367Z,10.27
2022-08-05T04:16:24.206Z,9.30
2022-08-05T04:18:54.477Z,9.77
2022-08-05T04:22:09.431Z,9.77
2022-08-05T04:24:09.801Z,8.88
2022-08-05T04:26:46.620Z,9.88
2022-08-05T04:29:13.347Z,10.13
2022-08-05T04:31:41.205Z,9.65
2022-08-05T04:34:18.829Z,9.25
2022-08-05T04:36:50.017Z,10.95
2022-08-05T04:39:20.785Z,10.18
2022-08-05T04:41:51.250Z,8.02
2022-08-05T04:44:29.146Z,8.45
2022-08-05T04:46:58.862Z,9.77
2022-08-05T04:49:38.608Z,8.52
2022-08-05T04:52:13.418Z,8.63
2022-08-05T04:54:40.510Z,7.97
2022-08-05T04:57:07.117Z,8.15
2022-08-05T04:59:40.508Z,7.63
2022-08-05T05:02:41.436Z,7.50
2022-08-05T05:05:02.301Z,7.40
2022-08-05T05:07:32.426Z,8.70
2022-08-05T05:10:02.276Z,7.63
2022-08-05T05:12:29.775Z,7.57
2022-08-05T05:14:56.487Z,7.60
2022-08-05T05:17:24.890Z,7.63
2022-08-05T05:20:12.021Z,6.85
2022-08-05T05:22:41.026Z,6.35
2022-08-05T05:25:16.037Z,7.13
2022-08-05T05:27:53.729Z,7.68
2022-08-05T05:30:30.716Z,6.68
2022-08-05T05:33:16.077Z,7.15
2022-08-05T05:35:45.462Z,6.72
2022-08-05T05:38:13.592Z,6.43
2022-08-05T05:40:49.631Z,6.45
2022-08-05T05:43:27.737Z,6.95
2022-08-05T05:46:12.228Z,6.57
2022-08-05T05:48:44.741Z,6.60
2022-08-05T05:51:18.498Z,6.65
2022-08-05T05:53:54.521Z,6.13
2022-08-05T05:56:32.732Z,5.65
2022-08-05T05:59:03.379Z,6.70
2022-08-05T06:01:38.060Z,6.38
2022-08-05T06:04:07.565Z,6.38
2022-08-05T06:06:35.387Z,6.82
2022-08-05T06:09:04.523Z,6.93
2022-08-05T06:11:32.348Z,6.47
2022-08-05T06:14:00.335Z,6.93
2022-08-05T06:16:33.026Z,5.70
2022-08-05T06:19:05.658Z,5.47
2022-08-05T06:21:37.420Z,5.65
2022-08-05T06:24:12.110Z,5.70
2022-08-05T06:26:52.303Z,5.47
2022-08-05T06:29:46.493Z,6.28
2022-08-05T06:32:21.161Z,4.93
2022-08-05T06:34:53.489Z,6.50
2022-08-05T06:37:56.389Z,6.43
2022-08-05T06:40:11.249Z,6.07
2022-08-05T06:42:39.951Z,6.35
2022-08-05T06:45:08.861Z,6.88
2022-08-05T06:48:44.056Z,6.72
2022-08-05T06:50:23.472Z,6.30
2022-08-05T06:52:58.483Z,7.22
2022-08-05T06:55:25.642Z,6.65
2022-08-05T06:57:58.248Z,6.20
2022-08-05T07:00:41.151Z,6.85
2022-08-05T07:03:09.646Z,6.80
2022-08-05T07:05:37.341Z,7.13
2022-08-05T07:08:05.106Z,6.95
2022-08-05T07:10:32.777Z,7.55
2022-08-05T07:13:52.456Z,6.65
2022-08-05T07:17:56.799Z,8.00
2022-08-05T07:19:10.166Z,7.13
2022-08-05T07:22:00.072Z,6.82
2022-08-05T07:24:28.728Z,7.00
2022-08-05T07:26:56.869Z,5.95
2022-08-05T07:30:22.111Z,7.72
2022-08-05T07:32:12.286Z,7.53
2022-08-05T07:34:42.385Z,8.10
2022-08-05T07:37:11.478Z,7.47
2022-08-05T07:40:04.390Z,7.15
2022-08-05T07:42:31.804Z,8.13
2022-08-05T07:45:00.968Z,7.72
2022-08-05T07:47:27.535Z,7.93
2022-08-05T07:50:09.678Z,7.72
2022-08-05T07:52:40.378Z,8.60
2022-08-05T07:55:44.586Z,8.55
2022-08-05T07:58:02.107Z,8.80
2022-08-05T08:00:31.666Z,9.20
2022-08-05T08:03:15.364Z,9.52
2022-08-05T08:05:47.552Z,8.25
2022-08-05T08:08:19.773Z,9.23
2022-08-05T08:10:48.734Z,8.77
2022-08-05T08:13:21.965Z,9.55
2022-08-05T08:16:49.901Z,10.10
2022-08-05T08:18:42.950Z,11.63
2022-08-05T08:21:17.706Z,11.13
2022-08-05T08:24:03.100Z,12.10
2022-08-05T08:26:32.256Z,10.18
2022-08-05T08:29:21.616Z,11.20
2022-08-05T08:31:46.390Z,10.00
2022-08-05T08:34:15.092Z,9.70
2022-08-05T08:36:48.924Z,10.45
2022-08-05T08:39:23.426Z,9.40
2022-08-05T08:41:59.459Z,10.55
2022-08-05T08:45:19.918Z,9.95
2022-08-05T08:48:05.880Z,9.13
2022-08-05T08:50:23.097Z,7.50
2022-08-05T08:53:07.932Z,7.00
2022-08-05T08:56:03.541Z,6.32
2022-08-05T08:58:26.063Z,5.65
2022-08-05T09:01:06.065Z,5.55
2022-08-05T09:03:39.467Z,4.45
2022-08-05T09:06:10.936Z,4.60
2022-08-05T09:08:40.130Z,4.78
2022-08-05T09:11:13.557Z,5.55
2022-08-05T09:14:10.204Z,4.15
2022-08-05T09:16:30.265Z,3.70
2022-08-05T09:18:59.410Z,3.75
2022-08-05T09:22:23.267Z,3.72
2022-08-05T09:24:15.442Z,3.90
2022-08-05T09:26:46.919Z,3.95
2022-08-05T09:29:18.993Z,3.50
2022-08-05T09:32:46.601Z,3.60
2022-08-05T09:34:55.433Z,4.43
2022-08-05T09:38:12.200Z,4.07
2022-08-05T09:40:29.858Z,3.88
2022-08-05T09:42:59.521Z,4.07
2022-08-05T09:46:06.177Z,4.03
2022-08-05T09:48:34.399Z,4.13
2022-08-05T09:51:15.185Z,4.10
2022-08-05T09:53:53.397Z,4.40
2022-08-05T09:56:29.780Z,4.13
2022-08-05T09:59:00.448Z,4.15
2022-08-05T10:01:32.262Z,4.05
2022-08-05T10:04:04.521Z,4.32
2022-08-05T10:06:40.430Z,3.55
2022-08-05T10:09:28.384Z,4.07
2022-08-05T10:12:30.722Z,4.00
2022-08-05T10:15:13.767Z,4.20
2022-08-05T10:17:47.440Z,4.70
2022-08-05T10:20:25.065Z,4.25
2022-08-05T10:22:52.482Z,4.38
2022-08-05T10:25:20.107Z,4.38
2022-08-05T10:28:13.079Z,5.07
2022-08-05T10:32:47.266Z,4.78
2022-08-05T10:33:25.655Z,4.80
2022-08-05T10:35:59.164Z,4.82
2022-08-05T10:38:29.646Z,4.63
2022-08-05T10:41:23.618Z,4.57
2022-08-05T10:44:12.924Z,5.03
2022-08-05T10:46:43.868Z,5.00
2022-08-05T10:49:16.862Z,7.07
2022-08-05T10:51:48.633Z,6.03
2022-08-05T10:54:56.103Z,7.50
2022-08-05T10:57:33.947Z,7.10
2022-08-05T11:00:16.365Z,6.25
2022-08-05T11:03:23.410Z,6.88
2022-08-05T11:06:04.714Z,7.43
2022-08-05T11:08:37.415Z,6.97
2022-08-05T11:11:44.434Z,7.43
2022-08-05T11:15:00.889Z,7.05
2022-08-05T11:17:57.163Z,7.43
2022-08-05T11:20:41.621Z,7.60
2022-08-05T11:24:04.719Z,7.65
2022-08-05T11:26:43.435Z,7.85
2022-08-05T11:29:40.895Z,8.02
2022-08-05T11:32:26.328Z,8.10
2022-08-05T11:34:54.467Z,8.38
2022-08-05T11:38:28.003Z,7.30
2022-08-05T11:41:00.615Z,8.68
2022-08-05T11:44:00.983Z,9.63
2022-08-05T11:46:32.375Z,8.38
2022-08-05T11:49:00.898Z,8.27
2022-08-05T11:51:44.411Z,7.82
2022-08-05T11:54:32.925Z,7.80
2022-08-05T11:57:07.605Z,7.60
2022-08-05T11:59:49.586Z,6.18
2022-08-05T12:05:01.101Z,6.20
2022-08-05T12:08:08.807Z,6.63
2022-08-05T12:10:24.901Z,6.57
2022-08-05T12:13:16.830Z,6.38
2022-08-05T12:15:49.717Z,5.55
2022-08-05T12:18:32.984Z,4.72
2022-08-05T12:21:24.297Z,5.20
2022-08-05T12:23:55.049Z,5.05
2022-08-05T12:26:23.136Z,4.68
2022-08-05T12:28:50.938Z,4.65
2022-08-05T12:31:28.051Z,4.85
2022-08-05T12:34:08.066Z,4.63
2022-08-05T12:36:42.504Z,5.43
2022-08-05T12:39:09.918Z,4.35
2022-08-05T12:41:43.628Z,5.00
2022-08-05T12:44:14.196Z,4.63
2022-08-05T12:46:45.691Z,5.05
2022-08-05T12:49:18.983Z,4.90
2022-08-05T12:52:13.860Z,5.38
2022-08-05T12:54:49.677Z,5.70
2022-08-05T12:57:19.747Z,5.20
2022-08-05T13:02:01.963Z,6.07
2022-08-05T13:02:41.674Z,5.70
2022-08-05T13:05:11.047Z,5.95
2022-08-05T13:07:59.804Z,6.18
2022-08-05T13:10:30.870Z,5.85
2022-08-05T13:12:58.470Z,5.93
2022-08-05T13:15:41.479Z,6.65
2022-08-05T13:18:20.093Z,6.18
2022-08-05T13:20:50.325Z,5.63
2022-08-05T13:23:22.402Z,6.72
2022-08-05T13:25:59.347Z,6.13
2022-08-05T13:28:28.445Z,6.38
2022-08-05T13:30:55.467Z,6.95
2022-08-05T13:34:25.160Z,6.75
2022-08-05T13:36:11.165Z,6.30
2022-08-05T13:38:42.722Z,6.60
2022-08-05T13:41:11.342Z,6.40
2022-08-05T13:43:45.235Z,6.05
2022-08-05T13:46:37.762Z,6.47
2022-08-05T13:49:11.731Z,5.75
2022-08-05T13:51:40.881Z,5.95
2022-08-05T13:54:12.473Z,5.55
2022-08-05T13:56:45.218Z,4.97
2022-08-05T13:59:24.069Z,4.68
2022-08-05T14:01:59.568Z,4.68
2022-08-05T14:04:51.630Z,4.55
2022-08-05T14:07:25.850Z,4.95
2022-08-05T14:10:14.207Z,4.80
2022-08-05T14:12:48.913Z,4.90
2022-08-05T14:16:05.956Z,4.97
2022-08-05T14:18:04.022Z,4.82
2022-08-05T14:20:32.767Z,5.30
2022-08-05T14:22:59.966Z,4.75
2022-08-05T14:25:28.156Z,5.30
2022-08-05T14:27:55.824Z,4.50
2022-08-05T14:30:22.866Z,3.70
2022-08-05T14:32:53.237Z,4.75
2022-08-05T14:35:20.696Z,4.20
2022-08-05T14:37:53.549Z,5.70
2022-08-05T14:40:24.365Z,5.65
2022-08-05T14:42:51.892Z,5.40
2022-08-05T14:45:18.713Z,5.35
2022-08-05T14:48:04.969Z,6.32
2022-08-05T14:50:32.719Z,4.93
2022-08-05T14:53:00.254Z,4.63
2022-08-05T14:55:39.174Z,4.53
2022-08-05T14:58:13.719Z,4.20
2022-08-05T15:00:58.338Z,4.20
2022-08-05T15:03:34.030Z,3.70
2022-08-05T15:06:14.781Z,3.78
2022-08-05T15:08:59.009Z,3.88
2022-08-05T15:11:52.248Z,3.95
2022-08-05T15:14:34.247Z,3.70
2022-08-05T15:17:04.694Z,3.92
2022-08-05T15:19:32.127Z,3.65
2022-08-05T15:22:01.082Z,4.40
2022-08-05T15:24:28.976Z,3.70
2022-08-05T15:26:57.657Z,4.28
2022-08-05T15:29:30.141Z,4.32
2022-08-05T15:32:02.257Z,4.13
2022-08-05T15:34:32.234Z,4.93
2022-08-05T15:37:04.859Z,4.93
2022-08-05T15:41:01.276Z,4.70
2022-08-05T15:42:50.457Z,4.32
2022-08-05T15:45:10.314Z,4.85
2022-08-05T15:47:41.557Z,5.32
2022-08-05T15:50:13.974Z,4.90
2022-08-05T15:52:53.871Z,5.22
2022-08-05T15:55:24.569Z,4.60
2022-08-05T15:57:52.437Z,4.60
2022-08-05T16:00:25.992Z,4.78
2022-08-05T16:02:59.762Z,4.70
2022-08-05T16:05:28.147Z,5.03
2022-08-05T16:07:55.215Z,4.68
2022-08-05T16:10:25.498Z,4.57
2022-08-05T16:12:53.697Z,4.63
2022-08-05T16:15:23.779Z,4.88
2022-08-05T16:17:57.768Z,4.38
2022-08-05T16:20:25.532Z,4.65
2022-08-05T16:22:53.160Z,4.07
2022-08-05T16:25:20.262Z,4.63
2022-08-05T16:28:02.125Z,4.10
2022-08-05T16:30:34.194Z,4.32
2022-08-05T16:33:03.095Z,4.50
2022-08-05T16:35:30.842Z,4.65
2022-08-05T16:38:15.487Z,4.32
2022-08-05T16:40:52.298Z,3.78
2022-08-05T16:43:23.905Z,4.32
2022-08-05T16:46:03.445Z,4.20
2022-08-05T16:48:36.676Z,4.15
2022-08-05T16:51:03.972Z,4.43
2022-08-05T16:54:05.422Z,3.45
2022-08-05T16:56:24.010Z,3.28
2022-08-05T16:58:50.889Z,3.70
2022-08-05T17:01:18.865Z,3.75
2022-08-05T17:03:46.326Z,2.90
2022-08-05T17:06:13.571Z,2.00
2022-08-05T17:08:53.626Z,1.23
2022-08-05T17:11:25.267Z,1.13
2022-08-05T17:13:54.814Z,1.02
2022-08-05T17:16:37.660Z,1.02
2022-08-05T17:19:09.642Z,0.95
2022-08-05T17:21:37.538Z,0.93
2022-08-05T17:24:27.967Z,1.45
2022-08-05T17:26:56.350Z,0.90
2022-08-05T17:29:33.428Z,0.90
2022-08-05T17:32:16.721Z,0.98
2022-08-05T17:34:47.869Z,1.10
2022-08-05T17:37:40.937Z,1.17
2022-08-05T17:40:10.694Z,1.20
2022-08-05T17:42:46.408Z,1.30
2022-08-05T17:45:20.475Z,0.95
2022-08-05T17:47:56.040Z,1.10
2022-08-05T17:50:30.521Z,0.90
2022-08-05T17:53:00.054Z,0.90
2022-08-05T17:55:37.808Z,1.00
2022-08-05T17:58:09.789Z,0.80
2022-08-05T18:00:40.857Z,0.80
2022-08-05T18:03:28.185Z,1.00
2022-08-05T18:06:04.969Z,0.90
2022-08-05T18:08:33.311Z,0.80
2022-08-05T18:11:00.527Z,2.15
2022-08-05T18:13:36.627Z,0.98
2022-08-05T18:16:04.470Z,0.80
2022-08-05T18:18:33.548Z,0.90
2022-08-05T18:21:13.205Z,1.10
2022-08-05T18:23:47.240Z,0.80
2022-08-05T18:26:14.615Z,0.90
2022-08-05T18:28:46.530Z,0.98
2022-08-05T18:31:15.698Z,1.25
2022-08-05T18:33:47.121Z,1.25
2022-08-05T18:36:16.893Z,1.00
2022-08-05T18:38:46.430Z,1.30
2022-08-05T18:41:57.002Z,1.00
2022-08-05T18:44:05.461Z,0.93
2022-08-05T18:46:33.354Z,1.00
2022-08-05T18:49:20.817Z,1.10
2022-08-05T18:52:08.475Z,0.88
2022-08-05T18:54:35.918Z,1.00
2022-08-05T18:57:09.502Z,0.93
2022-08-05T18:59:44.173Z,1.20
2022-08-05T19:02:28.948Z,1.05
2022-08-05T19:05:03.012Z,1.00
2022-08-05T19:07:49.813Z,1.00
2022-08-05T19:10:27.960Z,1.00
2022-08-05T19:12:56.613Z,1.15
2022-08-05T19:15:56.648Z,1.00
2022-08-05T19:18:13.554Z,1.00
2022-08-05T19:20:52.735Z,0.93
2022-08-05T19:24:04.048Z,1.10
2022-08-05T19:26:09.147Z,1.02
2022-08-05T19:28:40.768Z,1.00
2022-08-05T19:31:08.894Z,1.30
2022-08-05T19:33:40.657Z,0.88
2022-08-05T19:36:16.819Z,0.90
2022-08-05T19:38:45.051Z,0.85
2022-08-05T19:41:11.705Z,0.80
2022-08-05T19:44:05.530Z,1.05
2022-08-05T19:46:30.690Z,0.82
2022-08-05T19:49:01.167Z,0.93
2022-08-05T19:52:05.490Z,1.00
2022-08-05T19:54:25.460Z,0.85
2022-08-05T19:56:56.677Z,0.90
2022-08-05T20:00:01.078Z,1.00
2022-08-05T20:02:10.022Z,1.35
2022-08-05T20:04:37.750Z,1.20
2022-08-05T20:07:13.085Z,0.98
2022-08-05T20:09:53.945Z,0.93
2022-08-05T20:12:23.720Z,1.05
2022-08-05T20:14:52.493Z,1.30
2022-08-05T20:17:23.417Z,1.20
2022-08-05T20:19:56.702Z,1.10
2022-08-05T20:22:26.646Z,1.10
2022-08-05T20:24:55.893Z,1.10
2022-08-05T20:27:26.886Z,0.90
2022-08-05T20:29:58.355Z,1.10
2022-08-05T20:32:27.057Z,0.93
2022-08-05T20:34:54.309Z,1.20
2022-08-05T20:38:05.459Z,1.08
2022-08-05T20:40:08.519Z,1.20
2022-08-05T20:42:35.527Z,1.00
2022-08-05T20:45:02.838Z,1.30
2022-08-05T20:47:31.654Z,1.10
2022-08-05T20:49:59.811Z,1.20
2022-08-05T20:52:29.565Z,1.40
2022-08-05T20:55:23.508Z,1.30
2022-08-05T20:57:44.919Z,1.27
2022-08-05T21:00:34.945Z,1.30
2022-08-05T21:03:07.157Z,1.27
2022-08-05T21:05:47.867Z,1.35
2022-08-05T21:08:26.430Z,1.50
2022-08-05T21:10:53.751Z,1.20
2022-08-05T21:13:36.744Z,1.60
2022-08-05T21:16:07.214Z,1.60
2022-08-05T21:18:34.306Z,1.50
2022-08-05T21:21:02.746Z,1.80
2022-08-05T21:23:29.466Z,1.80
2022-08-05T21:26:04.864Z,1.77
2022-08-05T21:28:40.196Z,1.70
2022-08-05T21:31:16.587Z,1.83
2022-08-05T21:33:43.403Z,1.65
2022-08-05T21:36:19.076Z,1.52
2022-08-05T21:38:54.748Z,1.40
2022-08-05T21:41:21.617Z,1.63
2022-08-05T21:43:50.942Z,1.63
2022-08-05T21:46:28.897Z,1.90
2022-08-05T21:48:59.823Z,2.05
2022-08-05T21:52:21.653Z,1.42
2022-08-05T21:54:13.265Z,1.75
2022-08-05T21:56:44.490Z,1.50
2022-08-05T21:59:24.120Z,1.70
2022-08-05T22:01:54.497Z,1.45
2022-08-05T22:04:25.231Z,1.67
2022-08-05T22:06:52.682Z,1.60
2022-08-05T22:09:21.137Z,1.70
2022-08-05T22:11:48.578Z,1.58
2022-08-05T22:14:33.375Z,1.60
2022-08-05T22:17:05.129Z,1.50
2022-08-05T22:20:03.118Z,1.60
2022-08-05T22:22:26.705Z,1.80
2022-08-05T22:25:20.922Z,1.58
2022-08-05T22:28:09.704Z,1.50
2022-08-05T22:30:44.131Z,1.55
2022-08-05T22:33:57.490Z,1.60
2022-08-05T22:36:14.569Z,1.42
2022-08-05T22:38:48.185Z,1.52
2022-08-05T22:42:04.462Z,1.60
2022-08-05T22:44:07.898Z,1.58
2022-08-05T22:46:39.419Z,2.00
2022-08-05T22:49:07.225Z,1.75
2022-08-05T22:52:05.559Z,2.00
2022-08-05T22:54:28.075Z,2.10
2022-08-05T22:56:55.188Z,1.80
2022-08-05T22:59:46.227Z,1.98
2022-08-05T23:02:08.755Z,2.28
2022-08-05T23:04:37.510Z,1.95
2022-08-05T23:07:04.838Z,1.88
2022-08-05T23:09:57.700Z,2.15
2022-08-05T23:12:23.767Z,2.17
2022-08-05T23:14:51.351Z,2.13
2022-08-05T23:17:32.758Z,2.65
2022-08-05T23:20:17.717Z,2.25
2022-08-05T23:22:48.298Z,2.20
2022-08-05T23:25:17.717Z,2.38
2022-08-05T23:28:06.867Z,2.13
2022-08-05T23:30:39.623Z,2.25
2022-08-05T23:33:07.400Z,2.53
2022-08-05T23:35:49.669Z,2.17
2022-08-05T23:38:16.315Z,2.20
2022-08-05T23:40:49.365Z,2.20
2022-08-05T23:43:25.648Z,2.05
2022-08-05T23:46:19.741Z,2.30
2022-08-05T23:48:59.590Z,2.17
2022-08-05T23:51:53.372Z,2.50
2022-08-05T23:54:29.824Z,2.20
2022-08-05T23:57:03.330Z,2.40
2022-08-05T23:59:37.771Z,2.40
